sensor_id;sensor_type;location;lat;lon;timestamp;pressure;altitude;pressure_sealevel;temperature;humidity
11621;BME280;5866;49.094;11.900;2023-06-26T00:01:37;96245.09;;;18.52;85.93
11621;BME280;5866;49.094;11.900;2023-06-26T00:04:06;96243.66;;;18.56;85.04
11621;BME280;5866;49.094;11.900;2023-06-26T00:06:34;96249.41;;;18.66;83.57
11621;BME280;5866;49.094;11.900;2023-06-26T00:09:02;96244.41;;;18.76;82.33
11621;BME280;5866;49.094;11.900;2023-06-26T00:11:29;96245.03;;;18.71;82.29
11621;BME280;5866;49.094;11.900;2023-06-26T00:13:59;96240.31;;;18.67;82.42
11621;BME280;5866;49.094;11.900;2023-06-26T00:16:28;96239.47;;;18.66;83.15
11621;BME280;5866;49.094;11.900;2023-06-26T00:18:57;96252.13;;;18.53;84.33
11621;BME280;5866;49.094;11.900;2023-06-26T00:21:26;96248.19;;;18.62;83.84
11621;BME280;5866;49.094;11.900;2023-06-26T00:23:53;96244.06;;;18.53;83.92
11621;BME280;5866;49.094;11.900;2023-06-26T00:26:21;96248.63;;;18.46;84.75
11621;BME280;5866;49.094;11.900;2023-06-26T00:28:50;96246.75;;;18.40;84.85
11621;BME280;5866;49.094;11.900;2023-06-26T00:31:18;96250.28;;;18.27;85.59
11621;BME280;5866;49.094;11.900;2023-06-26T00:33:47;96249.25;;;18.21;87.04
11621;BME280;5866;49.094;11.900;2023-06-26T00:36:14;96251.94;;;18.35;86.76
11621;BME280;5866;49.094;11.900;2023-06-26T00:38:42;96251.28;;;18.39;86.90
11621;BME280;5866;49.094;11.900;2023-06-26T00:41:09;96253.56;;;18.36;87.42
11621;BME280;5866;49.094;11.900;2023-06-26T00:43:39;96254.41;;;18.30;87.82
11621;BME280;5866;49.094;11.900;2023-06-26T00:46:09;96255.25;;;18.23;88.96
11621;BME280;5866;49.094;11.900;2023-06-26T00:48:37;96253.19;;;18.12;90.00
11621;BME280;5866;49.094;11.900;2023-06-26T00:51:07;96252.38;;;18.05;90.51
11621;BME280;5866;49.094;11.900;2023-06-26T00:53:36;96247.81;;;18.06;90.18
11621;BME280;5866;49.094;11.900;2023-06-26T00:56:05;96256.31;;;18.09;89.39
11621;BME280;5866;49.094;11.900;2023-06-26T00:58:32;96244.53;;;18.10;89.08
11621;BME280;5866;49.094;11.900;2023-06-26T01:01:00;96253.19;;;18.06;89.68
11621;BME280;5866;49.094;11.900;2023-06-26T01:03:29;96252.38;;;18.05;89.54
11621;BME280;5866;49.094;11.900;2023-06-26T01:05:58;96248.66;;;17.93;91.66
11621;BME280;5866;49.094;11.900;2023-06-26T01:08:28;96247.25;;;17.91;92.71
11621;BME280;5866;49.094;11.900;2023-06-26T01:10:56;96249.09;;;17.90;92.63
11621;BME280;5866;49.094;11.900;2023-06-26T01:13:27;96242.06;;;17.89;92.38
11621;BME280;5866;49.094;11.900;2023-06-26T01:15:57;96234.00;;;17.96;91.20
11621;BME280;5866;49.094;11.900;2023-06-26T01:18:26;96242.88;;;17.90;91.60
11621;BME280;5866;49.094;11.900;2023-06-26T01:20:53;96244.72;;;17.89;91.64
11621;BME280;5866;49.094;11.900;2023-06-26T01:23:30;96240.81;;;17.85;92.42
11621;BME280;5866;49.094;11.900;2023-06-26T01:26:12;96242.06;;;17.83;93.41
11621;BME280;5866;49.094;11.900;2023-06-26T01:28:42;96241.88;;;17.84;92.38
11621;BME280;5866;49.094;11.900;2023-06-26T01:31:11;96237.09;;;17.73;92.42
11621;BME280;5866;49.094;11.900;2023-06-26T01:33:40;96238.94;;;17.60;95.25
11621;BME280;5866;49.094;11.900;2023-06-26T01:36:08;96234.16;;;17.35;97.23
11621;BME280;5866;49.094;11.900;2023-06-26T01:38:35;96232.91;;;17.38;97.37
11621;BME280;5866;49.094;11.900;2023-06-26T01:41:04;96241.19;;;17.50;95.73
11621;BME280;5866;49.094;11.900;2023-06-26T01:43:36;96235.88;;;17.63;94.94
11621;BME280;5866;49.094;11.900;2023-06-26T01:46:14;96227.59;;;17.58;94.02
11621;BME280;5866;49.094;11.900;2023-06-26T01:48:55;96232.56;;;17.61;95.06
11621;BME280;5866;49.094;11.900;2023-06-26T01:51:30;96235.63;;;17.58;93.41
11621;BME280;5866;49.094;11.900;2023-06-26T01:53:58;96231.72;;;17.60;93.24
11621;BME280;5866;49.094;11.900;2023-06-26T01:56:28;96230.69;;;17.55;93.62
11621;BME280;5866;49.094;11.900;2023-06-26T01:58:58;96220.53;;;17.37;95.56
11621;BME280;5866;49.094;11.900;2023-06-26T02:01:27;96225.47;;;17.27;96.80
11621;BME280;5866;49.094;11.900;2023-06-26T02:03:55;96226.50;;;17.32;96.86
11621;BME280;5866;49.094;11.900;2023-06-26T02:06:22;96225.91;;;17.43;95.64
11621;BME280;5866;49.094;11.900;2023-06-26T02:08:50;96230.88;;;17.46;95.45
11621;BME280;5866;49.094;11.900;2023-06-26T02:11:17;96221.38;;;17.44;94.77
11621;BME280;5866;49.094;11.900;2023-06-26T02:13:45;96229.19;;;17.39;95.00
11621;BME280;5866;49.094;11.900;2023-06-26T02:16:14;96231.69;;;17.34;95.93
11621;BME280;5866;49.094;11.900;2023-06-26T02:18:42;96233.09;;;17.36;96.17
11621;BME280;5866;49.094;11.900;2023-06-26T02:21:09;96228.78;;;17.35;96.48
11621;BME280;5866;49.094;11.900;2023-06-26T02:23:37;96226.72;;;17.31;96.01
11621;BME280;5866;49.094;11.900;2023-06-26T02:26:04;96229.16;;;17.26;95.90
11621;BME280;5866;49.094;11.900;2023-06-26T02:28:32;96229.81;;;17.28;95.57
11621;BME280;5866;49.094;11.900;2023-06-26T02:31:00;96235.56;;;17.25;95.72
11621;BME280;5866;49.094;11.900;2023-06-26T02:33:29;96229.59;;;17.23;95.99
11621;BME280;5866;49.094;11.900;2023-06-26T02:35:57;96233.09;;;17.23;96.82
11621;BME280;5866;49.094;11.900;2023-06-26T02:38:24;96231.22;;;17.24;97.25
11621;BME280;5866;49.094;11.900;2023-06-26T02:40:52;96231.84;;;17.19;97.45
11621;BME280;5866;49.094;11.900;2023-06-26T02:43:19;96232.00;;;17.11;98.30
11621;BME280;5866;49.094;11.900;2023-06-26T02:45:47;96234.69;;;17.05;99.59
11621;BME280;5866;49.094;11.900;2023-06-26T02:48:14;96234.50;;;17.06;98.79
11621;BME280;5866;49.094;11.900;2023-06-26T02:50:43;96225.41;;;17.01;97.85
11621;BME280;5866;49.094;11.900;2023-06-26T02:53:12;96231.38;;;16.96;98.55
11621;BME280;5866;49.094;11.900;2023-06-26T02:55:40;96237.53;;;16.97;99.14
11621;BME280;5866;49.094;11.900;2023-06-26T02:58:07;96229.09;;;17.00;99.02
11621;BME280;5866;49.094;11.900;2023-06-26T03:00:35;96232.41;;;17.02;99.03
11621;BME280;5866;49.094;11.900;2023-06-26T03:03:08;96232.66;;;17.07;98.82
11621;BME280;5866;49.094;11.900;2023-06-26T03:05:35;96228.72;;;17.03;99.05
11621;BME280;5866;49.094;11.900;2023-06-26T03:08:05;96234.69;;;17.05;99.43
11621;BME280;5866;49.094;11.900;2023-06-26T03:10:32;96231.78;;;17.00;99.25
11621;BME280;5866;49.094;11.900;2023-06-26T03:13:00;96236.13;;;17.01;99.76
11621;BME280;5866;49.094;11.900;2023-06-26T03:15:27;96239.84;;;17.06;100.00
11621;BME280;5866;49.094;11.900;2023-06-26T03:17:55;96228.72;;;17.09;99.40
11621;BME280;5866;49.094;11.900;2023-06-26T03:20:22;96229.53;;;17.10;99.83
11621;BME280;5866;49.094;11.900;2023-06-26T03:22:50;96225.59;;;16.99;100.00
11621;BME280;5866;49.094;11.900;2023-06-26T03:25:19;96229.97;;;17.07;100.00
11621;BME280;5866;49.094;11.900;2023-06-26T03:27:46;96232.44;;;17.08;99.22
11621;BME280;5866;49.094;11.900;2023-06-26T03:30:15;96235.34;;;17.20;98.26
11621;BME280;5866;49.094;11.900;2023-06-26T03:32:43;96232.88;;;17.18;98.10
11621;BME280;5866;49.094;11.900;2023-06-26T03:35:10;96228.97;;;17.27;97.37
11621;BME280;5866;49.094;11.900;2023-06-26T03:37:38;96231.69;;;17.34;97.00
11621;BME280;5866;49.094;11.900;2023-06-26T03:40:08;96229.19;;;17.32;96.81
11621;BME280;5866;49.094;11.900;2023-06-26T03:42:37;96219.31;;;17.46;95.37
11621;BME280;5866;49.094;11.900;2023-06-26T03:45:05;96234.84;;;17.57;94.26
11621;BME280;5866;49.094;11.900;2023-06-26T03:47:33;96232.56;;;17.93;92.11
11621;BME280;5866;49.094;11.900;2023-06-26T03:50:00;96234.34;;;18.52;92.35
11621;BME280;5866;49.094;11.900;2023-06-26T03:52:28;96227.69;;;19.18;89.38
11621;BME280;5866;49.094;11.900;2023-06-26T03:54:57;96228.34;;;20.01;80.31
11621;BME280;5866;49.094;11.900;2023-06-26T03:57:24;96227.13;;;20.82;77.37
11621;BME280;5866;49.094;11.900;2023-06-26T03:59:53;96220.38;;;21.69;68.31
11621;BME280;5866;49.094;11.900;2023-06-26T04:02:21;96218.03;;;22.37;63.16
11621;BME280;5866;49.094;11.900;2023-06-26T04:04:49;96225.03;;;22.96;59.35
11621;BME280;5866;49.094;11.900;2023-06-26T04:07:18;96225.75;;;23.59;56.86
11621;BME280;5866;49.094;11.900;2023-06-26T04:09:46;96226.81;;;24.19;54.80
11621;BME280;5866;49.094;11.900;2023-06-26T04:12:13;96214.75;;;24.82;52.57
11621;BME280;5866;49.094;11.900;2023-06-26T04:14:41;96218.66;;;25.34;50.56
11621;BME280;5866;49.094;11.900;2023-06-26T04:17:11;96208.34;;;25.84;48.96
11621;BME280;5866;49.094;11.900;2023-06-26T04:19:39;96210.41;;;26.36;47.85
11621;BME280;5866;49.094;11.900;2023-06-26T04:22:06;96203.72;;;26.90;46.07
11621;BME280;5866;49.094;11.900;2023-06-26T04:24:34;96204.50;;;27.47;44.80
11621;BME280;5866;49.094;11.900;2023-06-26T04:27:02;96204.06;;;27.86;43.24
11621;BME280;5866;49.094;11.900;2023-06-26T04:29:29;96206.50;;;27.87;43.42
11621;BME280;5866;49.094;11.900;2023-06-26T04:31:57;96210.59;;;27.95;43.84
11621;BME280;5866;49.094;11.900;2023-06-26T04:34:27;96209.81;;;28.40;43.93
11621;BME280;5866;49.094;11.900;2023-06-26T04:36:56;96224.25;;;28.35;44.78
11621;BME280;5866;49.094;11.900;2023-06-26T04:39:24;96217.03;;;29.15;43.58
11621;BME280;5866;49.094;11.900;2023-06-26T04:41:52;96213.56;;;29.63;43.33
11621;BME280;5866;49.094;11.900;2023-06-26T04:44:20;96218.97;;;30.50;41.49
11621;BME280;5866;49.094;11.900;2023-06-26T04:46:47;96213.94;;;31.15;40.30
11621;BME280;5866;49.094;11.900;2023-06-26T04:49:18;96206.44;;;31.86;39.29
11621;BME280;5866;49.094;11.900;2023-06-26T04:51:48;96201.47;;;32.26;38.42
11621;BME280;5866;49.094;11.900;2023-06-26T04:54:17;96208.03;;;32.75;37.46
11621;BME280;5866;49.094;11.900;2023-06-26T04:56:44;96201.28;;;33.41;36.60
11621;BME280;5866;49.094;11.900;2023-06-26T04:59:13;96208.16;;;33.79;35.67
11621;BME280;5866;49.094;11.900;2023-06-26T05:01:41;96206.25;;;34.15;35.00
11621;BME280;5866;49.094;11.900;2023-06-26T05:04:10;96200.34;;;34.66;34.55
11621;BME280;5866;49.094;11.900;2023-06-26T05:06:38;96204.19;;;34.65;34.29
11621;BME280;5866;49.094;11.900;2023-06-26T05:09:07;96208.41;;;34.93;34.13
11621;BME280;5866;49.094;11.900;2023-06-26T05:11:34;96213.75;;;35.60;33.45
11621;BME280;5866;49.094;11.900;2023-06-26T05:14:02;96203.44;;;36.08;32.76
11621;BME280;5866;49.094;11.900;2023-06-26T05:16:29;96202.16;;;36.14;32.34
11621;BME280;5866;49.094;11.900;2023-06-26T05:18:57;96214.50;;;36.08;32.53
11621;BME280;5866;49.094;11.900;2023-06-26T05:21:25;96210.28;;;36.19;32.54
11621;BME280;5866;49.094;11.900;2023-06-26T05:23:55;96199.97;;;36.80;31.26
11621;BME280;5866;49.094;11.900;2023-06-26T05:26:26;96200.19;;;36.57;31.58
11621;BME280;5866;49.094;11.900;2023-06-26T05:28:54;96203.75;;;36.32;31.98
11621;BME280;5866;49.094;11.900;2023-06-26T05:31:22;96209.53;;;35.62;32.89
11621;BME280;5866;49.094;11.900;2023-06-26T05:33:51;96200.78;;;34.90;32.70
11621;BME280;5866;49.094;11.900;2023-06-26T05:36:20;96199.75;;;33.98;34.66
11621;BME280;5866;49.094;11.900;2023-06-26T05:38:49;96195.78;;;33.54;34.89
11621;BME280;5866;49.094;11.900;2023-06-26T05:41:17;96203.03;;;32.64;36.31
11621;BME280;5866;49.094;11.900;2023-06-26T05:43:46;96203.72;;;33.02;36.01
11621;BME280;5866;49.094;11.900;2023-06-26T05:46:14;96196.94;;;33.53;35.23
11621;BME280;5866;49.094;11.900;2023-06-26T05:48:42;96197.63;;;33.18;35.90
11621;BME280;5866;49.094;11.900;2023-06-26T05:51:10;96195.50;;;33.15;35.50
11621;BME280;5866;49.094;11.900;2023-06-26T05:53:38;96209.03;;;33.25;36.47
11621;BME280;5866;49.094;11.900;2023-06-26T05:56:06;96198.44;;;34.31;34.13
11621;BME280;5866;49.094;11.900;2023-06-26T05:58:34;96205.19;;;34.69;33.65
11621;BME280;5866;49.094;11.900;2023-06-26T06:01:03;96199.06;;;35.34;32.99
11621;BME280;5866;49.094;11.900;2023-06-26T06:03:31;96194.63;;;35.24;32.60
11621;BME280;5866;49.094;11.900;2023-06-26T06:05:58;96185.97;;;35.08;32.83
11621;BME280;5866;49.094;11.900;2023-06-26T06:08:26;96195.06;;;35.65;32.21
11621;BME280;5866;49.094;11.900;2023-06-26T06:10:53;96192.06;;;36.35;31.03
11621;BME280;5866;49.094;11.900;2023-06-26T06:13:21;96196.25;;;36.76;30.43
11621;BME280;5866;49.094;11.900;2023-06-26T06:15:49;96199.66;;;36.90;30.80
11621;BME280;5866;49.094;11.900;2023-06-26T06:18:18;96197.72;;;37.28;30.36
11621;BME280;5866;49.094;11.900;2023-06-26T06:20:45;96195.81;;;37.58;29.73
11621;BME280;5866;49.094;11.900;2023-06-26T06:23:13;96201.69;;;37.48;29.74
11621;BME280;5866;49.094;11.900;2023-06-26T06:25:41;96200.59;;;37.02;30.04
11621;BME280;5866;49.094;11.900;2023-06-26T06:28:08;96198.59;;;37.78;29.64
11621;BME280;5866;49.094;11.900;2023-06-26T06:30:36;96197.19;;;37.72;28.95
11621;BME280;5866;49.094;11.900;2023-06-26T06:33:06;96194.31;;;37.60;29.53
11621;BME280;5866;49.094;11.900;2023-06-26T06:35:35;96200.84;;;37.26;29.51
11621;BME280;5866;49.094;11.900;2023-06-26T06:38:02;96194.31;;;37.60;28.72
11621;BME280;5866;49.094;11.900;2023-06-26T06:40:30;96205.75;;;38.50;27.62
11621;BME280;5866;49.094;11.900;2023-06-26T06:42:58;96196.13;;;38.68;27.37
11621;BME280;5866;49.094;11.900;2023-06-26T06:45:25;96196.44;;;38.99;27.55
11621;BME280;5866;49.094;11.900;2023-06-26T06:47:53;96192.75;;;37.80;28.14
11621;BME280;5866;49.094;11.900;2023-06-26T06:50:21;96191.97;;;37.41;28.43
11621;BME280;5866;49.094;11.900;2023-06-26T06:52:49;96190.88;;;37.92;27.93
11621;BME280;5866;49.094;11.900;2023-06-26T06:55:17;96182.53;;;38.87;27.66
11621;BME280;5866;49.094;11.900;2023-06-26T06:57:45;96198.63;;;38.19;28.48
11621;BME280;5866;49.094;11.900;2023-06-26T07:00:13;96184.75;;;37.78;28.42
11621;BME280;5866;49.094;11.900;2023-06-26T07:02:43;96188.41;;;37.70;28.19
11621;BME280;5866;49.094;11.900;2023-06-26T07:05:11;96190.19;;;38.16;27.23
11621;BME280;5866;49.094;11.900;2023-06-26T07:07:39;96184.00;;;38.40;28.48
11621;BME280;5866;49.094;11.900;2023-06-26T07:10:10;96185.56;;;38.08;27.52
11621;BME280;5866;49.094;11.900;2023-06-26T07:12:38;96182.63;;;38.46;28.39
11621;BME280;5866;49.094;11.900;2023-06-26T07:15:06;96179.44;;;37.94;28.19
11621;BME280;5866;49.094;11.900;2023-06-26T07:17:34;96183.41;;;37.26;29.42
11621;BME280;5866;49.094;11.900;2023-06-26T07:20:05;96180.72;;;37.47;29.06
11621;BME280;5866;49.094;11.900;2023-06-26T07:22:34;96181.97;;;38.61;27.90
11621;BME280;5866;49.094;11.900;2023-06-26T07:25:02;96174.25;;;39.96;26.17
11621;BME280;5866;49.094;11.900;2023-06-26T07:27:32;96187.00;;;40.49;26.30
11621;BME280;5866;49.094;11.900;2023-06-26T07:30:00;96185.59;;;40.70;26.18
11621;BME280;5866;49.094;11.900;2023-06-26T07:32:27;96185.84;;;40.37;25.05
11621;BME280;5866;49.094;11.900;2023-06-26T07:34:55;96180.06;;;38.20;27.84
11621;BME280;5866;49.094;11.900;2023-06-26T07:37:23;96184.59;;;39.23;26.18
11621;BME280;5866;49.094;11.900;2023-06-26T07:39:50;96185.06;;;39.37;25.08
11621;BME280;5866;49.094;11.900;2023-06-26T07:42:18;96188.06;;;39.80;24.77
11621;BME280;5866;49.094;11.900;2023-06-26T07:44:47;96186.34;;;39.39;25.52
11621;BME280;5866;49.094;11.900;2023-06-26T07:47:15;96184.91;;;39.94;25.34
11621;BME280;5866;49.094;11.900;2023-06-26T07:49:42;96177.69;;;40.84;24.07
11621;BME280;5866;49.094;11.900;2023-06-26T07:52:10;96177.88;;;40.91;24.22
11621;BME280;5866;49.094;11.900;2023-06-26T07:54:38;96179.72;;;40.44;24.31
11621;BME280;5866;49.094;11.900;2023-06-26T07:57:06;96178.59;;;41.82;23.04
11621;BME280;5866;49.094;11.900;2023-06-26T07:59:35;96162.41;;;42.22;23.05
11621;BME280;5866;49.094;11.900;2023-06-26T08:02:04;96160.50;;;42.26;22.83
11621;BME280;5866;49.094;11.900;2023-06-26T08:04:32;96170.53;;;41.46;22.83
11621;BME280;5866;49.094;11.900;2023-06-26T08:07:01;96173.69;;;40.02;22.80
11621;BME280;5866;49.094;11.900;2023-06-26T08:09:30;96172.91;;;38.40;25.57
11621;BME280;5866;49.094;11.900;2023-06-26T08:11:58;96176.38;;;39.14;24.02
11621;BME280;5866;49.094;11.900;2023-06-26T08:14:26;96173.16;;;39.73;22.65
11621;BME280;5866;49.094;11.900;2023-06-26T08:16:54;96174.28;;;39.84;21.67
11621;BME280;5866;49.094;11.900;2023-06-26T08:19:23;96163.75;;;39.89;22.29
11621;BME280;5866;49.094;11.900;2023-06-26T08:21:50;96158.78;;;39.83;22.12
11621;BME280;5866;49.094;11.900;2023-06-26T08:24:18;96160.63;;;39.79;22.59
11621;BME280;5866;49.094;11.900;2023-06-26T08:26:46;96152.03;;;38.75;23.43
11621;BME280;5866;49.094;11.900;2023-06-26T08:29:14;96156.69;;;38.30;23.66
11621;BME280;5866;49.094;11.900;2023-06-26T08:31:43;96147.09;;;38.27;22.89
11621;BME280;5866;49.094;11.900;2023-06-26T08:34:11;96153.94;;;37.59;24.08
11621;BME280;5866;49.094;11.900;2023-06-26T08:36:40;96137.44;;;37.42;24.81
11621;BME280;5866;49.094;11.900;2023-06-26T08:39:07;96147.66;;;36.57;25.41
11621;BME280;5866;49.094;11.900;2023-06-26T08:41:35;96154.59;;;37.56;24.13
11621;BME280;5866;49.094;11.900;2023-06-26T08:44:03;96142.53;;;38.88;23.59
11621;BME280;5866;49.094;11.900;2023-06-26T08:46:31;96142.69;;;38.91;23.09
11621;BME280;5866;49.094;11.900;2023-06-26T08:49:01;96146.47;;;38.75;23.74
11621;BME280;5866;49.094;11.900;2023-06-26T08:51:30;96143.97;;;37.87;23.71
11621;BME280;5866;49.094;11.900;2023-06-26T08:54:02;96142.00;;;37.67;24.94
11621;BME280;5866;49.094;11.900;2023-06-26T08:56:35;96142.38;;;37.86;23.77
11621;BME280;5866;49.094;11.900;2023-06-26T08:59:04;96134.63;;;38.12;23.07
11621;BME280;5866;49.094;11.900;2023-06-26T09:01:32;96132.84;;;37.46;24.67
11621;BME280;5866;49.094;11.900;2023-06-26T09:04:00;96137.75;;;38.11;23.00
11621;BME280;5866;49.094;11.900;2023-06-26T09:06:28;96136.75;;;37.95;24.29
11621;BME280;5866;49.094;11.900;2023-06-26T09:08:55;96134.25;;;38.23;22.99
11621;BME280;5866;49.094;11.900;2023-06-26T09:11:24;96127.91;;;38.01;23.14
11621;BME280;5866;49.094;11.900;2023-06-26T09:13:52;96127.88;;;38.43;23.33
11621;BME280;5866;49.094;11.900;2023-06-26T09:16:24;96125.72;;;40.05;21.91
11621;BME280;5866;49.094;11.900;2023-06-26T09:18:53;96128.28;;;39.46;21.37
11621;BME280;5866;49.094;11.900;2023-06-26T09:21:21;96124.19;;;38.51;23.06
11621;BME280;5866;49.094;11.900;2023-06-26T09:23:49;96131.38;;;37.49;23.05
11621;BME280;5866;49.094;11.900;2023-06-26T09:26:17;96123.13;;;38.43;22.80
11621;BME280;5866;49.094;11.900;2023-06-26T09:28:46;96118.81;;;38.34;24.41
11621;BME280;5866;49.094;11.900;2023-06-26T09:31:16;96121.66;;;37.63;23.70
11621;BME280;5866;49.094;11.900;2023-06-26T09:34:06;96119.31;;;37.74;24.66
11621;BME280;5866;49.094;11.900;2023-06-26T09:36:33;96113.94;;;37.48;23.86
11621;BME280;5866;49.094;11.900;2023-06-26T09:39:07;96120.09;;;37.83;23.70
11621;BME280;5866;49.094;11.900;2023-06-26T09:41:38;96110.34;;;38.63;23.31
11621;BME280;5866;49.094;11.900;2023-06-26T09:44:10;96115.50;;;38.73;22.92
11621;BME280;5866;49.094;11.900;2023-06-26T09:46:38;96114.94;;;38.59;22.19
11621;BME280;5866;49.094;11.900;2023-06-26T09:49:07;96103.53;;;39.29;21.82
11621;BME280;5866;49.094;11.900;2023-06-26T09:51:36;96112.06;;;39.48;23.58
11621;BME280;5866;49.094;11.900;2023-06-26T09:54:05;96101.59;;;39.82;23.25
11621;BME280;5866;49.094;11.900;2023-06-26T09:56:33;96100.69;;;39.78;22.13
11621;BME280;5866;49.094;11.900;2023-06-26T09:59:02;96105.38;;;39.37;22.31
11621;BME280;5866;49.094;11.900;2023-06-26T10:01:32;96102.31;;;38.82;22.00
11621;BME280;5866;49.094;11.900;2023-06-26T10:04:00;96108.09;;;38.44;23.00
11621;BME280;5866;49.094;11.900;2023-06-26T10:06:34;96103.03;;;38.13;22.21
11621;BME280;5866;49.094;11.900;2023-06-26T10:09:03;96102.13;;;38.22;23.07
11621;BME280;5866;49.094;11.900;2023-06-26T10:11:36;96091.75;;;38.18;22.76
11621;BME280;5866;49.094;11.900;2023-06-26T10:14:07;96100.69;;;37.62;24.05
11621;BME280;5866;49.094;11.900;2023-06-26T10:16:44;96094.38;;;37.53;23.23
11621;BME280;5866;49.094;11.900;2023-06-26T10:19:14;96091.16;;;36.93;24.82
11621;BME280;5866;49.094;11.900;2023-06-26T10:21:45;96090.19;;;37.18;23.96
11621;BME280;5866;49.094;11.900;2023-06-26T10:24:13;96079.00;;;38.17;23.24
11621;BME280;5866;49.094;11.900;2023-06-26T10:26:44;96071.28;;;37.90;23.04
11621;BME280;5866;49.094;11.900;2023-06-26T10:29:13;96073.47;;;38.50;23.12
11621;BME280;5866;49.094;11.900;2023-06-26T10:31:48;96071.34;;;38.80;22.91
11621;BME280;5866;49.094;11.900;2023-06-26T10:34:17;96075.50;;;38.86;22.34
11621;BME280;5866;49.094;11.900;2023-06-26T10:36:44;96068.53;;;38.56;22.93
11621;BME280;5866;49.094;11.900;2023-06-26T10:39:13;96070.38;;;38.52;23.18
11621;BME280;5866;49.094;11.900;2023-06-26T10:41:41;96074.34;;;36.98;24.75
11621;BME280;5866;49.094;11.900;2023-06-26T10:44:40;96070.97;;;36.84;24.56
11621;BME280;5866;49.094;11.900;2023-06-26T10:47:09;96067.66;;;37.36;23.40
11621;BME280;5866;49.094;11.900;2023-06-26T10:49:37;96063.56;;;37.75;23.97
11621;BME280;5866;49.094;11.900;2023-06-26T10:52:06;96059.34;;;37.36;24.58
11621;BME280;5866;49.094;11.900;2023-06-26T10:54:34;96051.44;;;37.88;23.87
11621;BME280;5866;49.094;11.900;2023-06-26T10:57:02;96051.31;;;39.47;22.31
11621;BME280;5866;49.094;11.900;2023-06-26T10:59:31;96059.81;;;39.14;22.75
11621;BME280;5866;49.094;11.900;2023-06-26T11:02:00;96060.81;;;37.75;24.22
11621;BME280;5866;49.094;11.900;2023-06-26T11:04:40;96066.88;;;37.48;23.90
11621;BME280;5866;49.094;11.900;2023-06-26T11:07:15;96052.22;;;38.09;23.13
11621;BME280;5866;49.094;11.900;2023-06-26T11:09:57;96048.66;;;38.66;23.30
11621;BME280;5866;49.094;11.900;2023-06-26T11:12:36;96053.88;;;39.28;22.64
11621;BME280;5866;49.094;11.900;2023-06-26T11:15:07;96046.75;;;38.01;24.59
11621;BME280;5866;49.094;11.900;2023-06-26T11:17:35;96039.34;;;38.26;23.44
11621;BME280;5866;49.094;11.900;2023-06-26T11:20:05;96035.75;;;38.82;23.41
11621;BME280;5866;49.094;11.900;2023-06-26T11:22:35;96033.75;;;38.58;23.54
11621;BME280;5866;49.094;11.900;2023-06-26T11:25:04;96035.75;;;37.92;23.54
11621;BME280;5866;49.094;11.900;2023-06-26T11:27:32;96028.34;;;37.84;23.96
11621;BME280;5866;49.094;11.900;2023-06-26T11:30:00;96043.72;;;37.73;24.66
11621;BME280;5866;49.094;11.900;2023-06-26T11:32:28;96028.47;;;37.67;23.64
11621;BME280;5866;49.094;11.900;2023-06-26T11:34:56;96021.59;;;38.63;23.00
11621;BME280;5866;49.094;11.900;2023-06-26T11:37:25;96025.56;;;39.10;23.00
11621;BME280;5866;49.094;11.900;2023-06-26T11:39:53;96024.63;;;39.30;22.27
11621;BME280;5866;49.094;11.900;2023-06-26T11:42:20;96019.44;;;37.79;24.80
11621;BME280;5866;49.094;11.900;2023-06-26T11:44:48;96026.25;;;38.14;23.50
11621;BME280;5866;49.094;11.900;2023-06-26T11:47:17;96019.25;;;36.55;23.53
11621;BME280;5866;49.094;11.900;2023-06-26T11:49:47;96023.16;;;33.60;27.18
11621;BME280;5866;49.094;11.900;2023-06-26T11:52:15;96032.03;;;33.79;27.69
11621;BME280;5866;49.094;11.900;2023-06-26T11:54:44;96019.72;;;35.25;25.98
11621;BME280;5866;49.094;11.900;2023-06-26T11:57:14;96010.53;;;36.27;24.55
11621;BME280;5866;49.094;11.900;2023-06-26T11:59:41;95999.38;;;36.15;25.19
11621;BME280;5866;49.094;11.900;2023-06-26T12:02:13;96016.03;;;33.81;26.04
11621;BME280;5866;49.094;11.900;2023-06-26T12:04:42;96011.44;;;33.68;26.75
11621;BME280;5866;49.094;11.900;2023-06-26T12:07:11;96021.97;;;33.97;27.04
11621;BME280;5866;49.094;11.900;2023-06-26T12:09:42;95999.53;;;33.01;28.05
11621;BME280;5866;49.094;11.900;2023-06-26T12:12:11;96022.22;;;33.87;27.21
11621;BME280;5866;49.094;11.900;2023-06-26T12:14:41;96008.00;;;35.02;26.61
11621;BME280;5866;49.094;11.900;2023-06-26T12:17:10;96000.94;;;36.33;24.83
11621;BME280;5866;49.094;11.900;2023-06-26T12:19:38;96012.94;;;34.66;25.94
11621;BME280;5866;49.094;11.900;2023-06-26T12:22:07;96009.38;;;33.38;27.53
11621;BME280;5866;49.094;11.900;2023-06-26T12:24:36;96011.22;;;33.87;27.63
11621;BME280;5866;49.094;11.900;2023-06-26T12:27:08;96010.50;;;34.34;27.00
11621;BME280;5866;49.094;11.900;2023-06-26T12:29:39;95994.66;;;32.71;28.69
11621;BME280;5866;49.094;11.900;2023-06-26T12:32:09;96003.38;;;33.49;27.96
11621;BME280;5866;49.094;11.900;2023-06-26T12:34:37;95996.97;;;34.15;27.90
11621;BME280;5866;49.094;11.900;2023-06-26T12:37:08;96004.00;;;33.99;27.60
11621;BME280;5866;49.094;11.900;2023-06-26T12:39:46;95996.66;;;33.06;29.37
11621;BME280;5866;49.094;11.900;2023-06-26T12:42:15;95991.31;;;32.60;28.48
11621;BME280;5866;49.094;11.900;2023-06-26T12:44:44;95999.31;;;34.30;27.79
11621;BME280;5866;49.094;11.900;2023-06-26T12:47:14;95993.75;;;35.43;24.86
11621;BME280;5866;49.094;11.900;2023-06-26T12:49:43;95987.78;;;35.50;25.91
11621;BME280;5866;49.094;11.900;2023-06-26T12:52:14;95986.72;;;33.54;28.40
11621;BME280;5866;49.094;11.900;2023-06-26T12:54:43;95988.34;;;32.70;29.11
11621;BME280;5866;49.094;11.900;2023-06-26T12:57:10;95992.09;;;32.88;28.10
11621;BME280;5866;49.094;11.900;2023-06-26T12:59:40;95983.97;;;33.19;28.02
11621;BME280;5866;49.094;11.900;2023-06-26T13:02:10;95984.91;;;32.65;28.80
11621;BME280;5866;49.094;11.900;2023-06-26T13:04:40;95981.00;;;32.39;29.56
11621;BME280;5866;49.094;11.900;2023-06-26T13:07:08;95985.28;;;32.99;27.89
11621;BME280;5866;49.094;11.900;2023-06-26T13:09:36;96001.81;;;31.99;28.99